sensor_id;sensor_type;location;lat;lon;timestamp;P1;P4;P2;P0;N10;N4;N25;N1;N05;TS
85957;SPS30;76994;48.226;16.348;2024-03-07T00:02:41;22.2;;22.2;21.2;;;;;;
85957;SPS30;76994;48.226;16.348;2024-03-07T00:12:41;21.9;;22.5;20.5;;;;;;
85957;SPS30;76994;48.226;16.348;2024-03-07T00:22:41;20.4;;20.7;19.1;;;;;;
85957;SPS30;76994;48.226;16.348;2024-03-07T00:32:41;22.1;;23.5;20.0;;;;;;
85957;SPS30;76994;48.226;16.348;2024-03-07T00:42:41;20.0;;20.3;18.9;;;;;;
85957;SPS30;76994;48.226;16.348;2024-03-07T00:52:41;20.3;;21.3;18.6;;;;;;
85957;SPS30;76994;48.226;16.348;2024-03-07T01:02:41;19.2;;19.6;17.9;;;;;;
85957;SPS30;76994;48.226;16.348;2024-03-07T01:12:41;19.4;;20.3;17.7;;;;;;
85957;SPS30;76994;48.226;16.348;2024-03-07T01:22:41;19.4;;20.3;17.8;;;;;;
85957;SPS30;76994;48.226;16.348;2024-03-07T01:32:41;19.0;;19.9;17.5;;;;;;
85957;SPS30;76994;48.226;16.348;2024-03-07T01:42:41;20.1;;21.0;18.4;;;;;;
85957;SPS30;76994;48.226;16.348;2024-03-07T01:52:41;19.9;;20.8;18.2;;;;;;
85957;SPS30;76994;48.226;16.348;2024-03-07T02:02:41;22.6;;23.4;20.9;;;;;;
85957;SPS30;76994;48.226;16.348;2024-03-07T02:12:41;23.8;;25.0;21.7;;;;;;
85957;SPS30;76994;48.226;16.348;2024-03-07T02:22:41;25.6;;26.3;23.9;;;;;;
85957;SPS30;76994;48.226;16.348;2024-03-07T02:32:41;25.2;;26.4;23.1;;;;;;
85957;SPS30;76994;48.226;16.348;2024-03-07T02:42:41;24.7;;25.9;22.7;;;;;;
85957;SPS30;76994;48.226;16.348;2024-03-07T02:52:41;24.7;;26.3;22.3;;;;;;
85957;SPS30;76994;48.226;16.348;2024-03-07T03:02:41;22.3;;23.2;20.5;;;;;;
85957;SPS30;76994;48.226;16.348;2024-03-07T03:12:41;21.0;;22.2;19.1;;;;;;
85957;SPS30;76994;48.226;16.348;2024-03-07T03:22:41;21.2;;22.1;19.4;;;;;;
85957;SPS30;76994;48.226;16.348;2024-03-07T03:32:41;20.0;;20.9;18.3;;;;;;
85957;SPS30;76994;48.226;16.348;2024-03-07T03:42:42;19.4;;20.4;17.7;;;;;;
85957;SPS30;76994;48.226;16.348;2024-03-07T03:52:42;18.4;;19.3;16.9;;;;;;
85957;SPS30;76994;48.226;16.348;2024-03-07T04:02:41;18.7;;18.9;17.7;;;;;;
85957;SPS30;76994;48.226;16.348;2024-03-07T04:12:41;17.9;;18.8;16.4;;;;;;
85957;SPS30;76994;48.226;16.348;2024-03-07T04:22:41;18.7;;19.5;17.2;;;;;;
85957;SPS30;76994;48.226;16.348;2024-03-07T04:32:41;17.8;;18.6;16.3;;;;;;
85957;SPS30;76994;48.226;16.348;2024-03-07T04:42:42;18.3;;19.1;16.9;;;;;;
85957;SPS30;76994;48.226;16.348;2024-03-07T04:52:41;17.4;;18.2;15.9;;;;;;
85957;SPS30;76994;48.226;16.348;2024-03-07T05:02:41;17.3;;18.0;15.9;;;;;;
85957;SPS30;76994;48.226;16.348;2024-03-07T05:12:43;17.0;;17.8;15.6;;;;;;
85957;SPS30;76994;48.226;16.348;2024-03-07T05:22:41;18.8;;19.9;17.1;;;;;;
85957;SPS30;76994;48.226;16.348;2024-03-07T05:32:41;18.9;;19.9;17.2;;;;;;
85957;SPS30;76994;48.226;16.348;2024-03-07T05:42:42;19.6;;20.5;18.0;;;;;;
85957;SPS30;76994;48.226;16.348;2024-03-07T05:52:42;20.0;;20.1;19.0;;;;;;
85957;SPS30;76994;48.226;16.348;2024-03-07T06:02:41;19.0;;20.2;17.1;;;;;;
85957;SPS30;76994;48.226;16.348;2024-03-07T06:12:41;18.2;;19.3;16.6;;;;;;
85957;SPS30;76994;48.226;16.348;2024-03-07T06:22:41;19.0;;19.6;17.6;;;;;;
85957;SPS30;76994;48.226;16.348;2024-03-07T06:32:41;19.6;;20.7;17.9;;;;;;
85957;SPS30;76994;48.226;16.348;2024-03-07T06:42:41;21.4;;22.8;19.3;;;;;;
85957;SPS30;76994;48.226;16.348;2024-03-07T06:52:41;20.2;;21.6;18.2;;;;;;
85957;SPS30;76994;48.226;16.348;2024-03-07T07:02:42;19.0;;20.0;17.3;;;;;;
85957;SPS30;76994;48.226;16.348;2024-03-07T07:12:43;19.0;;19.1;18.0;;;;;;
85957;SPS30;76994;48.226;16.348;2024-03-07T07:22:41;20.2;;21.5;18.2;;;;;;
85957;SPS30;76994;48.226;16.348;2024-03-07T07:32:41;18.8;;19.7;17.3;;;;;;
85957;SPS30;76994;48.226;16.348;2024-03-07T07:42:41;19.7;;20.0;18.5;;;;;;
85957;SPS30;76994;48.226;16.348;2024-03-07T07:52:42;19.0;;19.7;17.7;;;;;;
85957;SPS30;76994;48.226;16.348;2024-03-07T08:02:41;20.7;;21.6;19.0;;;;;;
85957;SPS30;76994;48.226;16.348;2024-03-07T08:12:41;19.1;;19.1;18.3;;;;;;
85957;SPS30;76994;48.226;16.348;2024-03-07T08:22:41;18.6;;19.2;17.2;;;;;;
85957;SPS30;76994;48.226;16.348;2024-03-07T08:32:42;17.4;;17.6;16.4;;;;;;
85957;SPS30;76994;48.226;16.348;2024-03-07T08:42:42;18.2;;19.2;16.5;;;;;;
85957;SPS30;76994;48.226;16.348;2024-03-07T08:52:41;17.5;;18.5;15.9;;;;;;
85957;SPS30;76994;48.226;16.348;2024-03-07T09:02:41;18.4;;19.1;16.9;;;;;;
85957;SPS30;76994;48.226;16.348;2024-03-07T09:12:42;19.8;;20.7;18.3;;;;;;
85957;SPS30;76994;48.226;16.348;2024-03-07T09:22:41;20.5;;21.5;18.8;;;;;;
85957;SPS30;76994;48.226;16.348;2024-03-07T09:32:42;20.4;;21.4;18.6;;;;;;
85957;SPS30;76994;48.226;16.348;2024-03-07T09:42:43;18.6;;19.4;17.1;;;;;;
85957;SPS30;76994;48.226;16.348;2024-03-07T09:52:41;20.7;;21.6;19.0;;;;;;
85957;SPS30;76994;48.226;16.348;2024-03-07T10:02:41;22.7;;23.5;21.0;;;;;;
85957;SPS30;76994;48.226;16.348;2024-03-07T10:12:41;24.1;;25.5;21.8;;;;;;
85957;SPS30;76994;48.226;16.348;2024-03-07T10:22:41;26.9;;28.3;24.5;;;;;;
85957;SPS30;76994;48.226;16.348;2024-03-07T10:32:41;35.3;;37.3;32.0;;;;;;
85957;SPS30;76994;48.226;16.348;2024-03-07T10:42:41;25.2;;26.7;22.8;;;;;;
85957;SPS30;76994;48.226;16.348;2024-03-07T10:52:43;24.9;;25.0;23.8;;;;;;
85957;SPS30;76994;48.226;16.348;2024-03-07T11:02:43;26.4;;28.2;23.8;;;;;;
85957;SPS30;76994;48.226;16.348;2024-03-07T11:12:41;29.8;;31.5;27.2;;;;;;
85957;SPS30;76994;48.226;16.348;2024-03-07T11:22:41;28.1;;29.4;25.8;;;;;;
85957;SPS30;76994;48.226;16.348;2024-03-07T11:32:41;28.4;;30.0;25.9;;;;;;
85957;SPS30;76994;48.226;16.348;2024-03-07T11:42:43;38.3;;40.3;35.0;;;;;;
85957;SPS30;76994;48.226;16.348;2024-03-07T11:52:41;32.9;;34.7;30.0;;;;;;
85957;SPS30;76994;48.226;16.348;2024-03-07T12:02:42;33.9;;35.5;31.1;;;;;;
85957;SPS30;76994;48.226;16.348;2024-03-07T12:12:41;33.8;;35.6;30.9;;;;;;
85957;SPS30;76994;48.226;16.348;2024-03-07T12:22:41;34.2;;36.1;31.2;;;;;;
85957;SPS30;76994;48.226;16.348;2024-03-07T12:32:43;35.5;;37.4;32.4;;;;;;
85957;SPS30;76994;48.226;16.348;2024-03-07T12:42:41;34.6;;36.5;31.4;;;;;;
85957;SPS30;76994;48.226;16.348;2024-03-07T12:52:42;36.2;;38.1;33.1;;;;;;
85957;SPS30;76994;48.226;16.348;2024-03-07T13:02:41;33.4;;34.4;31.1;;;;;;
85957;SPS30;76994;48.226;16.348;2024-03-07T13:12:41;34.0;;35.1;31.6;;;;;;
85957;SPS30;76994;48.226;16.348;2024-03-07T13:22:41;35.1;;36.9;32.1;;;;;;
85957;SPS30;76994;48.226;16.348;2024-03-07T13:32:41;33.3;;35.1;30.4;;;;;;
85957;SPS30;76994;48.226;16.348;2024-03-07T13:42:42;32.9;;34.4;30.2;;;;;;
85957;SPS30;76994;48.226;16.348;2024-03-07T13:52:41;33.1;;34.6;30.3;;;;;;
85957;SPS30;76994;48.226;16.348;2024-03-07T14:12:47;34.5;;36.6;31.4;;;;;;
85957;SPS30;76994;48.226;16.348;2024-03-07T14:22:47;31.5;;33.3;28.5;;;;;;
85957;SPS30;76994;48.226;16.348;2024-03-07T14:32:41;32.8;;34.6;29.8;;;;;;
85957;SPS30;76994;48.226;16.348;2024-03-07T14:42:42;32.8;;34.6;29.8;;;;;;
85957;SPS30;76994;48.226;16.348;2024-03-07T14:52:41;35.0;;36.9;31.8;;;;;;
85957;SPS30;76994;48.226;16.348;2024-03-07T15:02:41;33.6;;35.2;30.7;;;;;;
85957;SPS30;76994;48.226;16.348;2024-03-07T15:12:41;36.6;;38.6;33.4;;;;;;
85957;SPS30;76994;48.226;16.348;2024-03-07T15:22:42;39.6;;41.7;36.1;;;;;;
85957;SPS30;76994;48.226;16.348;2024-03-07T15:32:42;39.0;;41.0;35.7;;;;;;
85957;SPS30;76994;48.226;16.348;2024-03-07T15:42:41;42.2;;44.3;38.6;;;;;;
85957;SPS30;76994;48.226;16.348;2024-03-07T15:52:41;42.2;;44.9;38.1;;;;;;
85957;SPS30;76994;48.226;16.348;2024-03-07T16:02:41;44.3;;47.0;40.1;;;;;;
85957;SPS30;76994;48.226;16.348;2024-03-07T16:12:41;47.3;;50.7;42.3;;;;;;
85957;SPS30;76994;48.226;16.348;2024-03-07T16:22:42;47.7;;51.1;42.9;;;;;;
85957;SPS30;76994;48.226;16.348;2024-03-07T16:32:43;49.0;;52.1;44.3;;;;;;
85957;SPS30;76994;48.226;16.348;2024-03-07T16:42:42;51.7;;55.1;46.6;;;;;;
85957;SPS30;76994;48.226;16.348;2024-03-07T16:52:41;51.4;;54.7;46.4;;;;;;
85957;SPS30;76994;48.226;16.348;2024-03-07T17:02:41;50.7;;53.8;45.9;;;;;;
85957;SPS30;76994;48.226;16.348;2024-03-07T17:12:43;49.1;;52.5;44.2;;;;;;
85957;SPS30;76994;48.226;16.348;2024-03-07T17:22:43;50.8;;54.3;45.7;;;;;;
85957;SPS30;76994;48.226;16.348;2024-03-07T17:32:41;49.8;;52.8;45.1;;;;;;
85957;SPS30;76994;48.226;16.348;2024-03-07T17:42:42;53.5;;56.5;48.6;;;;;;
85957;SPS30;76994;48.226;16.348;2024-03-07T17:52:41;50.6;;53.2;46.2;;;;;;
85957;SPS30;76994;48.226;16.348;2024-03-07T18:02:42;54.0;;58.1;48.2;;;;;;
85957;SPS30;76994;48.226;16.348;2024-03-07T18:12:41;54.3;;58.0;48.8;;;;;;
85957;SPS30;76994;48.226;16.348;2024-03-07T18:22:41;54.1;;56.7;49.5;;;;;;
85957;SPS30;76994;48.226;16.348;2024-03-07T18:32:41;56.9;;61.6;50.5;;;;;;
85957;SPS30;76994;48.226;16.348;2024-03-07T18:42:42;56.1;;59.4;50.9;;;;;;
85957;SPS30;76994;48.226;16.348;2024-03-07T18:52:41;58.5;;62.7;52.5;;;;;;
85957;SPS30;76994;48.226;16.348;2024-03-07T19:02:41;56.1;;58.6;51.5;;;;;;
85957;SPS30;76994;48.226;16.348;2024-03-07T19:12:41;54.2;;57.7;48.8;;;;;;
85957;SPS30;76994;48.226;16.348;2024-03-07T19:22:41;57.8;;61.2;52.3;;;;;;
85957;SPS30;76994;48.226;16.348;2024-03-07T19:32:41;58.5;;62.5;52.6;;;;;;
85957;SPS30;76994;48.226;16.348;2024-03-07T19:42:41;58.7;;62.8;52.7;;;;;;
85957;SPS30;76994;48.226;16.348;2024-03-07T19:52:41;56.9;;60.4;51.5;;;;;;
85957;SPS30;76994;48.226;16.348;2024-03-07T20:02:41;56.6;;60.7;50.8;;;;;;
85957;SPS30;76994;48.226;16.348;2024-03-07T20:12:41;57.9;;61.7;52.2;;;;;;
85957;SPS30;76994;48.226;16.348;2024-03-07T20:22:42;61.9;;65.3;56.3;;;;;;
85957;SPS30;76994;48.226;16.348;2024-03-07T20:32:42;56.5;;60.7;50.6;;;;;;
85957;SPS30;76994;48.226;16.348;2024-03-07T20:42:41;58.1;;62.2;52.2;;;;;;
85957;SPS30;76994;48.226;16.348;2024-03-07T20:52:41;56.4;;60.3;50.7;;;;;;
85957;SPS30;76994;48.226;16.348;2024-03-07T21:02:41;54.4;;58.6;48.6;;;;;;
85957;SPS30;76994;48.226;16.348;2024-03-07T21:12:41;53.9;;57.5;48.5;;;;;;
85957;SPS30;76994;48.226;16.348;2024-03-07T21:22:43;57.1;;61.6;51.0;;;;;;
85957;SPS30;76994;48.226;16.348;2024-03-07T21:32:41;54.5;;58.7;48.7;;;;;;
85957;SPS30;76994;48.226;16.348;2024-03-07T21:42:41;57.0;;61.0;51.2;;;;;;
85957;SPS30;76994;48.226;16.348;2024-03-07T21:52:41;53.3;;56.5;48.3;;;;;;
85957;SPS30;76994;48.226;16.348;2024-03-07T22:02:41;53.2;;56.6;48.0;;;;;;
85957;SPS30;76994;48.226;16.348;2024-03-07T22:12:41;51.5;;54.4;46.8;;;;;;
85957;SPS30;76994;48.226;16.348;2024-03-07T22:22:41;53.3;;56.2;48.5;;;;;;
85957;SPS30;76994;48.226;16.348;2024-03-07T22:32:41;54.6;;58.5;48.9;;;;;;
85957;SPS30;76994;48.226;16.348;2024-03-07T22:42:41;53.8;;58.3;47.8;;;;;;
85957;SPS30;76994;48.226;16.348;2024-03-07T22:52:41;53.7;;56.5;49.0;;;;;;
85957;SPS30;76994;48.226;16.348;2024-03-07T23:02:41;53.3;;56.5;48.2;;;;;;
85957;SPS30;76994;48.226;16.348;2024-03-07T23:12:41;52.0;;55.8;46.6;;;;;;
85957;SPS30;76994;48.226;16.348;2024-03-07T23:22:41;51.3;;55.0;46.0;;;;;;
85957;SPS30;76994;48.226;16.348;2024-03-07T23:32:41;54.2;;58.0;48.6;;;;;;
85957;SPS30;76994;48.226;16.348;2024-03-07T23:42:42;55.9;;61.1;49.1;;;;;;
85957;SPS30;76994;48.226;16.348;2024-03-07T23:52:41;55.6;;60.4;49.3;;;;;;
